Time;durP1;ratioP1;P1;durP2;ratioP2;P2;SDS_P1;SDS_P2;PMS_P1;PMS_P2;Temp;Humidity;BMP_temperature;BMP_pressure;BME280_temperature;BME280_humidity;BME280_pressure;Samples;Min_cycle;Max_cycle;Signal;HPM_P1;HPM_P2
2023/11/06 00:01:50;;;;;;;154.27;139.70;;;;;;;;;;4994918;28;25100;-73
2023/11/06 00:04:16;;;;;;;158.98;143.85;;;;;;;;;;4998746;28;25080;-72
2023/11/06 00:06:42;;;;;;;152.80;138.63;;;;;;;;;;4998302;28;25046;-71
2023/11/06 00:09:08;;;;;;;152.18;137.82;;;;;;;;;;4993854;28;25130;-72
2023/11/06 00:11:35;;;;;;;155.30;140.02;;;;;;;;;;4996692;28;25087;-70
2023/11/06 00:14:01;;;;;;;149.00;134.57;;;;;;;;;;4999551;28;25080;-71
2023/11/06 00:16:27;;;;;;;148.27;134.15;;;;;;;;;;5011831;28;25141;-71
2023/11/06 00:18:53;;;;;;;160.15;144.80;;;;;;;;;;4997594;28;25076;-71
2023/11/06 00:21:23;;;;;;;155.30;140.15;;;;;;;;;;4995250;28;25062;-72
2023/11/06 00:23:50;;;;;;;155.82;141.02;;;;;;;;;;5007910;28;25071;-69
2023/11/06 00:26:16;;;;;;;164.07;148.65;;;;;;;;;;5018740;28;25073;-69
2023/11/06 00:28:42;;;;;;;164.65;148.38;;;;;;;;;;5017046;28;25162;-70
2023/11/06 00:31:08;;;;;;;167.57;151.48;;;;;;;;;;5017554;28;25094;-69
2023/11/06 00:33:34;;;;;;;163.98;148.38;;;;;;;;;;5017901;28;25079;-70
2023/11/06 00:36:01;;;;;;;163.70;148.68;;;;;;;;;;5013808;28;25078;-72
2023/11/06 00:38:27;;;;;;;169.07;153.40;;;;;;;;;;5009947;28;25145;-73
2023/11/06 00:40:53;;;;;;;167.52;152.07;;;;;;;;;;4996736;28;25080;-71
2023/11/06 00:43:19;;;;;;;172.00;156.40;;;;;;;;;;4999379;28;25088;-71
2023/11/06 00:45:45;;;;;;;172.52;156.57;;;;;;;;;;4988771;28;25089;-71
2023/11/06 00:48:11;;;;;;;175.63;158.05;;;;;;;;;;4995594;28;25069;-70
2023/11/06 00:50:37;;;;;;;174.50;158.10;;;;;;;;;;5003454;28;25084;-72
2023/11/06 00:53:03;;;;;;;182.82;165.27;;;;;;;;;;4996540;28;25057;-71
2023/11/06 00:55:30;;;;;;;176.25;159.55;;;;;;;;;;4990609;28;25067;-71
2023/11/06 00:57:56;;;;;;;173.43;157.05;;;;;;;;;;4998735;28;25085;-71
2023/11/06 01:00:22;;;;;;;167.38;151.48;;;;;;;;;;4994517;28;25081;-70
2023/11/06 01:02:51;;;;;;;163.43;147.23;;;;;;;;;;4998711;28;25114;-70
2023/11/06 01:05:17;;;;;;;161.55;146.35;;;;;;;;;;4999667;28;25082;-71
2023/11/06 01:07:43;;;;;;;163.27;147.77;;;;;;;;;;5001625;28;25068;-72
2023/11/06 01:10:09;;;;;;;164.63;148.82;;;;;;;;;;5012601;28;25105;-71
2023/11/06 01:12:36;;;;;;;163.07;147.77;;;;;;;;;;5014467;28;25074;-70
2023/11/06 01:15:02;;;;;;;164.70;149.05;;;;;;;;;;5013475;28;25082;-71
2023/11/06 01:17:28;;;;;;;167.13;151.00;;;;;;;;;;5005733;28;25071;-73
2023/11/06 01:19:54;;;;;;;162.65;147.35;;;;;;;;;;5003847;28;25064;-70
2023/11/06 01:22:20;;;;;;;166.32;150.45;;;;;;;;;;4994585;28;25088;-70
2023/11/06 01:24:46;;;;;;;161.55;145.32;;;;;;;;;;4998583;28;25075;-73
2023/11/06 01:27:12;;;;;;;158.90;143.32;;;;;;;;;;4991895;28;25081;-71
2023/11/06 01:29:39;;;;;;;161.48;145.98;;;;;;;;;;5005153;28;25074;-71
2023/11/06 01:32:05;;;;;;;162.35;146.88;;;;;;;;;;5013777;28;25066;-71
2023/11/06 01:34:31;;;;;;;160.55;145.68;;;;;;;;;;5009405;28;25070;-71
2023/11/06 01:36:57;;;;;;;163.15;147.23;;;;;;;;;;5015380;28;25059;-71
2023/11/06 01:39:23;;;;;;;159.57;143.88;;;;;;;;;;4998650;28;25097;-74
2023/11/06 01:41:49;;;;;;;159.82;144.57;;;;;;;;;;4997018;28;25150;-71
2023/11/06 01:44:16;;;;;;;160.38;144.70;;;;;;;;;;4996866;28;25144;-73
2023/11/06 01:46:42;;;;;;;164.82;149.07;;;;;;;;;;5001105;28;25075;-73
2023/11/06 01:49:09;;;;;;;158.10;142.70;;;;;;;;;;5000480;28;25048;-73
2023/11/06 01:51:36;;;;;;;155.68;139.88;;;;;;;;;;5009996;28;25143;-73
2023/11/06 01:54:03;;;;;;;154.85;139.43;;;;;;;;;;4997658;28;25144;-70
2023/11/06 01:56:29;;;;;;;153.02;138.13;;;;;;;;;;5002485;28;25043;-71
2023/11/06 01:58:58;;;;;;;145.90;131.70;;;;;;;;;;5009407;28;25086;-72
2023/11/06 02:01:26;;;;;;;146.48;132.02;;;;;;;;;;4996257;28;25063;-72
2023/11/06 02:03:52;;;;;;;149.40;134.75;;;;;;;;;;5002636;28;25065;-71
2023/11/06 02:06:19;;;;;;;146.35;131.98;;;;;;;;;;4989203;28;25064;-72
2023/11/06 02:08:45;;;;;;;129.77;117.70;;;;;;;;;;5005066;28;25148;-70
2023/11/06 02:11:11;;;;;;;146.85;132.65;;;;;;;;;;4991521;28;25066;-69
2023/11/06 02:13:37;;;;;;;144.77;130.45;;;;;;;;;;4987526;28;25072;-70
2023/11/06 02:16:03;;;;;;;144.90;130.70;;;;;;;;;;4994896;28;25088;-70
2023/11/06 02:18:29;;;;;;;142.05;127.93;;;;;;;;;;4992908;28;25060;-71
2023/11/06 02:20:57;;;;;;;141.63;127.68;;;;;;;;;;4994546;28;25131;-71
2023/11/06 02:23:24;;;;;;;139.23;125.30;;;;;;;;;;4990789;28;25065;-71
2023/11/06 02:25:50;;;;;;;142.18;127.90;;;;;;;;;;5004738;28;25077;-71
2023/11/06 02:28:16;;;;;;;140.05;126.65;;;;;;;;;;4989776;28;25071;-71
2023/11/06 02:30:43;;;;;;;138.18;124.57;;;;;;;;;;4986580;28;25143;-71
2023/11/06 02:33:09;;;;;;;135.45;122.55;;;;;;;;;;5005306;28;25112;-72
2023/11/06 02:35:36;;;;;;;133.98;121.05;;;;;;;;;;5000183;28;25080;-71
2023/11/06 02:38:03;;;;;;;130.43;117.95;;;;;;;;;;5006860;28;25057;-70
2023/11/06 02:40:29;;;;;;;129.95;117.45;;;;;;;;;;5003225;28;25080;-72
2023/11/06 02:42:55;;;;;;;130.95;117.97;;;;;;;;;;5017016;28;25065;-72
2023/11/06 02:45:21;;;;;;;129.05;116.55;;;;;;;;;;4988648;28;25075;-71
2023/11/06 02:47:47;;;;;;;130.88;118.38;;;;;;;;;;4990172;28;25103;-69
2023/11/06 02:50:13;;;;;;;125.00;113.20;;;;;;;;;;5001895;28;25067;-70
2023/11/06 02:52:42;;;;;;;131.68;119.13;;;;;;;;;;5008187;28;25108;-70
2023/11/06 02:55:08;;;;;;;127.72;115.82;;;;;;;;;;5029874;28;25068;-70
2023/11/06 02:57:34;;;;;;;124.95;112.93;;;;;;;;;;5049087;28;25053;-69
2023/11/06 03:00:06;;;;;;;123.30;111.30;;;;;;;;;;5039489;28;25074;-70
2023/11/06 03:02:32;;;;;;;127.95;115.53;;;;;;;;;;5043277;28;25051;-71
2023/11/06 03:04:58;;;;;;;119.03;107.93;;;;;;;;;;5042872;28;25057;-71
2023/11/06 03:07:24;;;;;;;121.85;110.43;;;;;;;;;;5030661;28;25051;-69
2023/11/06 03:09:50;;;;;;;123.05;111.75;;;;;;;;;;5023245;28;25076;-70
2023/11/06 03:12:16;;;;;;;120.70;109.22;;;;;;;;;;5018137;28;25136;-70
2023/11/06 03:14:42;;;;;;;120.68;109.53;;;;;;;;;;5010484;28;25087;-71
2023/11/06 03:17:08;;;;;;;124.20;112.82;;;;;;;;;;5012851;28;25067;-72
2023/11/06 03:19:35;;;;;;;127.50;115.88;;;;;;;;;;5012675;28;25061;-71
2023/11/06 03:22:01;;;;;;;119.72;108.63;;;;;;;;;;5011704;28;25057;-70
2023/11/06 03:24:27;;;;;;;119.38;108.40;;;;;;;;;;5018801;28;25063;-70
2023/11/06 03:26:53;;;;;;;122.30;110.78;;;;;;;;;;5004889;28;25097;-70
2023/11/06 03:29:20;;;;;;;121.97;110.53;;;;;;;;;;5017876;28;25097;-72
2023/11/06 03:31:46;;;;;;;120.70;109.75;;;;;;;;;;5009443;28;25072;-72
2023/11/06 03:34:12;;;;;;;121.90;110.80;;;;;;;;;;5012096;28;25079;-70
2023/11/06 03:36:41;;;;;;;123.68;112.53;;;;;;;;;;5003667;28;25107;-70
2023/11/06 03:39:08;;;;;;;125.25;113.95;;;;;;;;;;5006303;28;25116;-70
2023/11/06 03:41:34;;;;;;;126.32;114.55;;;;;;;;;;5011882;28;25089;-71
2023/11/06 03:44:00;;;;;;;120.70;110.03;;;;;;;;;;5015898;28;25138;-71
2023/11/06 03:46:26;;;;;;;106.57;97.75;;;;;;;;;;5009739;28;25060;-70
2023/11/06 03:48:52;;;;;;;125.78;114.47;;;;;;;;;;5016019;28;25164;-71
2023/11/06 03:51:18;;;;;;;120.45;109.53;;;;;;;;;;5012065;28;25094;-70
2023/11/06 03:53:45;;;;;;;116.50;106.47;;;;;;;;;;5005744;28;25064;-71
2023/11/06 03:56:11;;;;;;;118.80;108.43;;;;;;;;;;5012472;28;25061;-70
2023/11/06 03:58:37;;;;;;;125.70;114.28;;;;;;;;;;5013686;28;25077;-72
2023/11/06 04:01:03;;;;;;;121.40;110.47;;;;;;;;;;5022119;28;25052;-71
2023/11/06 04:03:29;;;;;;;126.45;115.22;;;;;;;;;;5023510;28;25098;-70
2023/11/06 04:05:55;;;;;;;123.28;111.93;;;;;;;;;;5024513;28;25070;-70
2023/11/06 04:08:21;;;;;;;128.70;117.20;;;;;;;;;;5016914;28;25063;-71
2023/11/06 04:10:51;;;;;;;122.85;111.65;;;;;;;;;;5015986;28;25102;-71
2023/11/06 04:13:17;;;;;;;121.68;110.72;;;;;;;;;;5027732;28;25061;-71
2023/11/06 04:15:43;;;;;;;125.38;114.07;;;;;;;;;;5021217;28;25059;-71
2023/11/06 04:18:09;;;;;;;122.93;112.07;;;;;;;;;;5016269;28;25149;-71
2023/11/06 04:20:35;;;;;;;119.10;108.20;;;;;;;;;;5009997;28;25533;-70
2023/11/06 04:23:01;;;;;;;119.35;108.80;;;;;;;;;;5022080;28;25080;-71
2023/11/06 04:25:27;;;;;;;123.65;112.72;;;;;;;;;;5015721;28;25055;-69
2023/11/06 04:27:53;;;;;;;122.70;111.95;;;;;;;;;;5019980;28;25066;-70
2023/11/06 04:30:19;;;;;;;116.35;106.18;;;;;;;;;;5020763;28;25063;-71
2023/11/06 04:32:45;;;;;;;122.75;112.15;;;;;;;;;;5010979;28;25169;-71
2023/11/06 04:35:11;;;;;;;122.00;111.03;;;;;;;;;;5014442;28;25071;-70
2023/11/06 04:37:39;;;;;;;125.82;114.70;;;;;;;;;;5014662;28;25139;-71
2023/11/06 04:40:06;;;;;;;119.38;109.32;;;;;;;;;;5021536;28;25079;-71
2023/11/06 04:42:33;;;;;;;122.65;112.35;;;;;;;;;;5017691;28;25079;-70
2023/11/06 04:44:59;;;;;;;122.35;111.55;;;;;;;;;;5010248;28;25080;-69
2023/11/06 04:47:25;;;;;;;119.68;108.88;;;;;;;;;;5012257;28;25068;-70
2023/11/06 04:49:51;;;;;;;118.25;108.00;;;;;;;;;;5002600;28;25080;-71
2023/11/06 04:52:17;;;;;;;119.05;108.10;;;;;;;;;;4998208;28;25073;-69
2023/11/06 04:54:43;;;;;;;118.53;108.38;;;;;;;;;;5016695;28;25144;-71
2023/11/06 04:57:09;;;;;;;116.82;106.68;;;;;;;;;;5015317;28;25051;-72
2023/11/06 04:59:37;;;;;;;118.32;108.03;;;;;;;;;;5015170;28;25064;-71
2023/11/06 05:02:04;;;;;;;115.55;105.60;;;;;;;;;;5007508;28;25077;-71
2023/11/06 05:04:30;;;;;;;112.93;103.13;;;;;;;;;;5014537;28;25148;-70
2023/11/06 05:06:58;;;;;;;110.13;100.25;;;;;;;;;;5007488;28;25060;-70
2023/11/06 05:09:24;;;;;;;111.20;100.95;;;;;;;;;;5009715;28;25066;-72
2023/11/06 05:11:50;;;;;;;115.05;104.22;;;;;;;;;;5008823;28;25113;-71
2023/11/06 05:14:16;;;;;;;108.40;98.57;;;;;;;;;;5007298;28;25076;-70
2023/11/06 05:16:42;;;;;;;106.28;97.30;;;;;;;;;;4999547;28;25112;-72
2023/11/06 05:19:08;;;;;;;119.50;108.70;;;;;;;;;;5011527;28;25211;-71
2023/11/06 05:21:34;;;;;;;117.40;106.93;;;;;;;;;;5007741;28;25074;-71
2023/11/06 05:24:00;;;;;;;121.00;109.93;;;;;;;;;;5011068;28;25054;-71
2023/11/06 05:26:27;;;;;;;118.25;106.90;;;;;;;;;;5014125;28;25069;-73
2023/11/06 05:28:53;;;;;;;120.22;109.18;;;;;;;;;;5004786;28;25050;-71
2023/11/06 05:31:19;;;;;;;122.72;110.93;;;;;;;;;;5016041;28;25071;-74
2023/11/06 05:33:45;;;;;;;121.53;110.30;;;;;;;;;;5008932;28;25068;-72
2023/11/06 05:36:14;;;;;;;122.47;110.70;;;;;;;;;;5013405;28;25133;-70
2023/11/06 05:38:40;;;;;;;116.47;105.97;;;;;;;;;;5017218;28;25135;-70
2023/11/06 05:41:09;;;;;;;117.97;106.93;;;;;;;;;;5015249;28;25140;-71
2023/11/06 05:43:34;;;;;;;119.65;107.90;;;;;;;;;;5011146;28;25070;-70
2023/11/06 05:46:00;;;;;;;127.57;115.72;;;;;;;;;;5009177;28;25068;-72
2023/11/06 05:48:26;;;;;;;125.90;113.82;;;;;;;;;;5010145;28;25094;-69
2023/11/06 05:50:52;;;;;;;120.32;108.53;;;;;;;;;;5013209;28;25065;-70
2023/11/06 05:53:18;;;;;;;101.90;93.25;;;;;;;;;;5014259;28;25050;-71
2023/11/06 05:55:47;;;;;;;98.85;89.97;;;;;;;;;;5005586;28;25134;-70
2023/11/06 05:58:13;;;;;;;101.03;91.97;;;;;;;;;;5011190;28;25066;-72
2023/11/06 06:00:40;;;;;;;100.35;91.57;;;;;;;;;;5009718;28;25048;-71
2023/11/06 06:03:06;;;;;;;103.18;93.75;;;;;;;;;;5015089;28;25066;-70
2023/11/06 06:05:32;;;;;;;105.28;95.85;;;;;;;;;;5019484;28;25517;-72
2023/11/06 06:07:59;;;;;;;103.90;94.72;;;;;;;;;;5032085;28;25059;-72
2023/11/06 06:10:24;;;;;;;117.15;105.85;;;;;;;;;;5031781;28;25056;-71
2023/11/06 06:12:51;;;;;;;112.10;102.18;;;;;;;;;;5028445;28;25057;-71
2023/11/06 06:15:17;;;;;;;105.47;96.03;;;;;;;;;;5016208;28;25067;-71
2023/11/06 06:17:43;;;;;;;106.43;96.60;;;;;;;;;;5017583;28;25074;-72
2023/11/06 06:20:12;;;;;;;109.63;100.00;;;;;;;;;;5012068;28;25066;-72
2023/11/06 06:22:38;;;;;;;106.32;96.88;;;;;;;;;;5012135;28;25139;-71
2023/11/06 06:25:05;;;;;;;106.72;97.57;;;;;;;;;;5015830;28;25121;-71
2023/11/06 06:27:31;;;;;;;104.15;94.65;;;;;;;;;;5021077;28;25112;-74
2023/11/06 06:29:57;;;;;;;99.40;91.22;;;;;;;;;;5021654;28;25084;-72
2023/11/06 06:32:23;;;;;;;97.18;88.47;;;;;;;;;;5031848;28;25057;-72
2023/11/06 06:34:49;;;;;;;97.03;88.63;;;;;;;;;;5033003;28;25068;-72
2023/11/06 06:37:15;;;;;;;97.63;89.80;;;;;;;;;;5042586;28;25084;-72
2023/11/06 06:39:41;;;;;;;95.38;88.07;;;;;;;;;;5035534;28;25082;-72
2023/11/06 06:42:07;;;;;;;93.68;85.95;;;;;;;;;;5037065;28;25073;-72
2023/11/06 06:44:33;;;;;;;92.75;85.47;;;;;;;;;;5032887;28;25055;-71
2023/11/06 06:46:59;;;;;;;88.63;82.10;;;;;;;;;;5024486;28;25069;-71
2023/11/06 06:49:28;;;;;;;93.60;86.70;;;;;;;;;;5023654;28;25057;-74
2023/11/06 06:51:54;;;;;;;98.45;90.72;;;;;;;;;;5019846;28;25073;-73
2023/11/06 06:54:20;;;;;;;94.55;87.22;;;;;;;;;;5017541;28;25070;-71
2023/11/06 06:56:49;;;;;;;95.10;88.32;;;;;;;;;;5010725;28;25053;-72
2023/11/06 06:59:15;;;;;;;91.75;85.25;;;;;;;;;;5013920;28;25095;-71
2023/11/06 07:01:42;;;;;;;95.95;89.10;;;;;;;;;;5020180;28;25078;-71
2023/11/06 07:04:08;;;;;;;96.70;89.45;;;;;;;;;;5018493;28;25048;-70
2023/11/06 07:06:35;;;;;;;93.88;86.85;;;;;;;;;;5018670;28;25066;-71
2023/11/06 07:09:02;;;;;;;95.38;88.25;;;;;;;;;;5013142;28;25063;-72
2023/11/06 07:11:29;;;;;;;86.80;80.28;;;;;;;;;;5011796;28;25095;-73
2023/11/06 07:13:55;;;;;;;95.63;88.68;;;;;;;;;;5012555;28;25074;-72
2023/11/06 07:16:21;;;;;;;99.20;92.03;;;;;;;;;;5018344;28;25167;-72
2023/11/06 07:18:48;;;;;;;103.28;95.47;;;;;;;;;;5015468;28;25088;-70
2023/11/06 07:21:14;;;;;;;108.45;100.15;;;;;;;;;;5015120;28;25051;-73
2023/11/06 07:23:39;;;;;;;108.82;100.63;;;;;;;;;;5005303;28;25112;-72
2023/11/06 07:26:06;;;;;;;108.57;100.30;;;;;;;;;;5016611;28;25073;-72
2023/11/06 07:28:32;;;;;;;102.50;94.75;;;;;;;;;;5006327;28;25156;-71
2023/11/06 07:30:59;;;;;;;108.45;100.75;;;;;;;;;;5011854;28;25481;-71
2023/11/06 07:33:25;;;;;;;110.25;102.20;;;;;;;;;;5014430;28;25054;-71
2023/11/06 07:35:52;;;;;;;112.95;103.88;;;;;;;;;;5010114;28;25060;-73
2023/11/06 07:38:18;;;;;;;110.25;101.97;;;;;;;;;;5014931;28;25062;-70
2023/11/06 07:40:44;;;;;;;115.03;106.13;;;;;;;;;;5009894;28;25058;-70
2023/11/06 07:43:10;;;;;;;108.38;99.80;;;;;;;;;;5013794;28;25087;-72
2023/11/06 07:45:36;;;;;;;106.35;98.20;;;;;;;;;;5013166;28;25069;-71
2023/11/06 07:48:05;;;;;;;112.20;103.30;;;;;;;;;;5012689;28;25052;-72
2023/11/06 07:50:32;;;;;;;113.10;104.10;;;;;;;;;;5013256;28;25080;-70
2023/11/06 07:52:58;;;;;;;106.47;98.25;;;;;;;;;;5008992;28;25112;-72
2023/11/06 07:55:24;;;;;;;108.30;99.82;;;;;;;;;;5009887;28;25060;-72
2023/11/06 07:57:50;;;;;;;101.38;93.82;;;;;;;;;;5008110;28;25091;-72
2023/11/06 08:00:16;;;;;;;107.25;99.10;;;;;;;;;;5010895;28;25051;-73
2023/11/06 08:02:43;;;;;;;104.75;96.68;;;;;;;;;;5013910;28;25075;-72
2023/11/06 08:05:09;;;;;;;99.35;91.82;;;;;;;;;;5022474;28;25160;-70
2023/11/06 08:07:35;;;;;;;105.65;97.45;;;;;;;;;;5024487;28;25075;-73
2023/11/06 08:10:02;;;;;;;99.35;91.70;;;;;;;;;;5004478;28;25059;-72
2023/11/06 08:12:29;;;;;;;103.82;96.07;;;;;;;;;;4992780;28;25167;-71
2023/11/06 08:14:55;;;;;;;112.72;103.38;;;;;;;;;;4988619;28;25139;-72
2023/11/06 08:17:21;;;;;;;85.13;78.70;;;;;;;;;;4995271;28;25160;-71
2023/11/06 08:19:47;;;;;;;90.00;82.97;;;;;;;;;;5001231;28;25102;-71
2023/11/06 08:22:13;;;;;;;79.78;73.72;;;;;;;;;;4986958;28;25146;-71
2023/11/06 08:24:41;;;;;;;95.03;87.45;;;;;;;;;;4993626;28;25103;-72
2023/11/06 08:27:07;;;;;;;95.20;87.53;;;;;;;;;;4995552;28;25064;-71
2023/11/06 08:29:33;;;;;;;93.90;86.18;;;;;;;;;;4984417;28;25079;-72
2023/11/06 08:32:00;;;;;;;98.97;90.97;;;;;;;;;;4988837;28;25137;-72
2023/11/06 08:34:26;;;;;;;99.47;91.15;;;;;;;;;;4992564;28;25100;-71
2023/11/06 08:36:52;;;;;;;83.70;77.22;;;;;;;;;;4988272;28;25107;-72
2023/11/06 08:39:18;;;;;;;116.53;107.10;;;;;;;;;;4990026;28;25158;-71
2023/11/06 08:41:45;;;;;;;112.53;103.50;;;;;;;;;;4990337;28;25058;-69
2023/11/06 08:44:11;;;;;;;113.90;104.40;;;;;;;;;;4988978;28;25090;-71
2023/11/06 08:46:36;;;;;;;75.50;69.68;;;;;;;;;;4983727;28;25096;-71
2023/11/06 08:49:02;;;;;;;70.63;65.13;;;;;;;;;;4983951;28;25074;-72
2023/11/06 08:51:31;;;;;;;78.25;72.00;;;;;;;;;;4993516;28;25075;-72
2023/11/06 08:53:57;;;;;;;72.82;67.47;;;;;;;;;;4987841;28;25072;-73
2023/11/06 08:56:23;;;;;;;110.65;101.85;;;;;;;;;;4988525;28;25079;-71
2023/11/06 08:58:50;;;;;;;109.30;100.35;;;;;;;;;;4985983;28;25168;-73
2023/11/06 09:01:16;;;;;;;107.38;99.00;;;;;;;;;;4996812;28;25048;-73
2023/11/06 09:03:42;;;;;;;101.22;94.07;;;;;;;;;;4987216;28;25089;-73
2023/11/06 09:06:10;;;;;;;67.55;62.40;;;;;;;;;;4995195;28;25080;-71
2023/11/06 09:08:36;;;;;;;58.00;53.72;;;;;;;;;;4987529;28;25043;-73
2023/11/06 09:11:02;;;;;;;77.45;72.22;;;;;;;;;;4989467;28;25046;-72
2023/11/06 09:13:35;;;;;;;57.70;53.85;;;;;;;;;;4982478;28;25130;-71
2023/11/06 09:16:01;;;;;;;57.42;52.65;;;;;;;;;;4999889;28;25085;-70
2023/11/06 09:18:27;;;;;;;55.40;51.03;;;;;;;;;;5000386;28;25093;-70
2023/11/06 09:20:54;;;;;;;50.22;45.58;;;;;;;;;;5007195;28;25065;-71
2023/11/06 09:23:21;;;;;;;51.00;46.75;;;;;;;;;;5002353;28;25074;-71
2023/11/06 09:25:47;;;;;;;54.22;50.40;;;;;;;;;;5008357;28;25074;-71
2023/11/06 09:28:13;;;;;;;46.78;43.30;;;;;;;;;;5001843;28;25067;-71
2023/11/06 09:30:43;;;;;;;49.47;45.85;;;;;;;;;;5006734;28;25054;-72
2023/11/06 09:33:08;;;;;;;44.13;40.38;;;;;;;;;;4997354;28;25142;-71
2023/11/06 09:35:34;;;;;;;48.88;44.83;;;;;;;;;;5000986;28;25139;-71
2023/11/06 09:38:00;;;;;;;43.13;39.53;;;;;;;;;;4997888;28;25139;-70
2023/11/06 09:40:27;;;;;;;31.83;25.40;;;;;;;;;;4993831;28;25170;-73
2023/11/06 09:42:53;;;;;;;23.92;20.35;;;;;;;;;;4997450;28;25165;-71
2023/11/06 09:45:19;;;;;;;27.13;24.83;;;;;;;;;;4987595;28;25131;-72
2023/11/06 09:47:51;;;;;;;72.80;67.88;;;;;;;;;;4997119;28;24996;-71
2023/11/06 09:50:21;;;;;;;35.45;32.67;;;;;;;;;;4984414;28;25045;-72
2023/11/06 09:52:48;;;;;;;32.15;29.05;;;;;;;;;;5001880;28;25060;-71
2023/11/06 09:55:18;;;;;;;36.72;33.47;;;;;;;;;;5001250;28;25060;-72
2023/11/06 09:57:44;;;;;;;26.75;24.45;;;;;;;;;;4995702;28;25111;-73
2023/11/06 10:00:14;;;;;;;25.58;22.80;;;;;;;;;;4996074;28;25148;-72
2023/11/06 10:02:40;;;;;;;30.00;27.38;;;;;;;;;;4995293;28;25049;-72
2023/11/06 10:05:12;;;;;;;23.20;20.92;;;;;;;;;;4994949;28;25082;-70
2023/11/06 10:07:41;;;;;;;29.80;26.92;;;;;;;;;;5002921;28;25056;-70
2023/11/06 10:10:11;;;;;;;26.95;22.23;;;;;;;;;;4993603;28;25053;-72
2023/11/06 10:12:37;;;;;;;24.45;16.48;;;;;;;;;;4996273;28;25096;-71
2023/11/06 10:15:06;;;;;;;23.20;17.70;;;;;;;;;;4996992;28;25140;-74
2023/11/06 10:17:33;;;;;;;19.13;16.92;;;;;;;;;;4996538;28;25059;-73
2023/11/06 10:20:05;;;;;;;22.17;13.55;;;;;;;;;;4981267;28;25069;-71
2023/11/06 10:22:32;;;;;;;16.70;12.70;;;;;;;;;;4989206;28;25168;-71
2023/11/06 10:24:58;;;;;;;20.15;15.15;;;;;;;;;;4993837;28;25078;-70
2023/11/06 10:27:29;;;;;;;16.15;13.13;;;;;;;;;;4992063;28;25156;-71
2023/11/06 10:30:05;;;;;;;18.98;13.15;;;;;;;;;;4994693;28;25071;-72
2023/11/06 10:32:31;;;;;;;17.13;11.30;;;;;;;;;;5009807;28;25067;-70
2023/11/06 10:35:01;;;;;;;17.85;10.27;;;;;;;;;;4994837;28;25070;-71
2023/11/06 10:37:28;;;;;;;19.50;9.07;;;;;;;;;;5008495;28;25073;-71
2023/11/06 10:39:55;;;;;;;16.08;7.82;;;;;;;;;;5013923;28;25087;-72
2023/11/06 10:42:22;;;;;;;15.52;8.50;;;;;;;;;;5011209;28;25132;-72
2023/11/06 10:44:58;;;;;;;11.57;5.05;;;;;;;;;;5006758;28;25074;-72
2023/11/06 10:47:34;;;;;;;12.65;6.10;;;;;;;;;;5015214;28;25092;-70
2023/11/06 10:50:02;;;;;;;14.40;7.10;;;;;;;;;;5000473;28;25149;-70
2023/11/06 10:52:32;;;;;;;19.38;7.85;;;;;;;;;;4992308;28;25117;-70
2023/11/06 10:54:59;;;;;;;17.65;14.52;;;;;;;;;;5001866;28;25119;-72
2023/11/06 10:57:26;;;;;;;15.75;9.82;;;;;;;;;;4988245;28;25137;-72
2023/11/06 10:59:52;;;;;;;21.00;10.95;;;;;;;;;;4998770;28;25070;-72
2023/11/06 11:02:32;;;;;;;19.60;13.73;;;;;;;;;;4995235;28;25095;-71
2023/11/06 11:04:59;;;;;;;18.17;16.38;;;;;;;;;;4980812;28;25096;-72
2023/11/06 11:07:26;;;;;;;21.17;18.00;;;;;;;;;;4983351;28;25062;-71
2023/11/06 11:09:52;;;;;;;20.70;18.70;;;;;;;;;;5000021;28;25076;-72
2023/11/06 11:12:19;;;;;;;24.52;22.52;;;;;;;;;;4990289;28;25071;-70
2023/11/06 11:14:45;;;;;;;18.65;15.93;;;;;;;;;;5000893;28;25075;-71
2023/11/06 11:17:11;;;;;;;17.73;15.82;;;;;;;;;;4991699;28;25051;-72
2023/11/06 11:19:39;;;;;;;19.40;15.23;;;;;;;;;;4992938;28;25045;-72
2023/11/06 11:22:09;;;;;;;15.80;12.43;;;;;;;;;;4980433;28;25076;-70
2023/11/06 11:24:54;;;;;;;19.52;11.05;;;;;;;;;;4991532;28;25052;-71
2023/11/06 11:27:23;;;;;;;18.52;11.55;;;;;;;;;;4996971;28;25093;-72
2023/11/06 11:29:58;;;;;;;20.25;8.05;;;;;;;;;;4991330;28;25098;-72
2023/11/06 11:32:30;;;;;;;13.52;9.63;;;;;;;;;;4981237;28;25070;-72
2023/11/06 11:34:57;;;;;;;16.23;7.05;;;;;;;;;;4988262;28;25047;-72
2023/11/06 11:37:35;;;;;;;14.60;5.45;;;;;;;;;;4982281;28;25062;-70
2023/11/06 11:40:03;;;;;;;10.75;4.60;;;;;;;;;;4983915;28;25074;-74
2023/11/06 11:42:29;;;;;;;13.43;5.35;;;;;;;;;;4982890;28;25139;-71
2023/11/06 11:44:58;;;;;;;14.63;5.45;;;;;;;;;;4986379;28;25073;-72
2023/11/06 11:47:25;;;;;;;14.43;6.13;;;;;;;;;;4983664;28;25104;-73
2023/11/06 11:49:52;;;;;;;12.15;6.50;;;;;;;;;;4989348;28;25064;-70
2023/11/06 11:52:24;;;;;;;11.52;8.27;;;;;;;;;;5006278;28;25053;-72
2023/11/06 11:54:50;;;;;;;14.30;9.13;;;;;;;;;;5003477;28;25063;-71
2023/11/06 11:57:16;;;;;;;8.45;6.20;;;;;;;;;;5004727;28;25133;-73
2023/11/06 11:59:49;;;;;;;12.77;8.00;;;;;;;;;;5004999;28;25056;-69
2023/11/06 12:02:15;;;;;;;;;;;;;;;;;;4995475;28;25147;-69
2023/11/06 12:04:41;;;;;;;16.58;6.88;;;;;;;;;;4990118;28;25114;-73
2023/11/06 12:07:07;;;;;;;14.52;9.63;;;;;;;;;;4993603;28;25069;-70
2023/11/06 12:09:47;;;;;;;16.15;9.02;;;;;;;;;;4985044;28;25078;-72
2023/11/06 12:12:32;;;;;;;10.15;7.30;;;;;;;;;;4996101;28;25180;-72
2023/11/06 12:15:02;;;;;;;10.00;8.48;;;;;;;;;;4992530;28;25060;-71
2023/11/06 12:17:33;;;;;;;10.25;7.18;;;;;;;;;;4998521;28;25060;-72
2023/11/06 12:19:59;;;;;;;11.48;10.27;;;;;;;;;;4997038;28;25139;-71
2023/11/06 12:22:26;;;;;;;17.02;9.10;;;;;;;;;;5000306;28;25065;-71
2023/11/06 12:24:53;;;;;;;11.23;10.02;;;;;;;;;;5010770;28;25143;-71
2023/11/06 12:27:20;;;;;;;12.57;11.27;;;;;;;;;;5003416;28;25059;-72
2023/11/06 12:29:46;;;;;;;12.48;11.32;;;;;;;;;;5002150;28;25054;-71
2023/11/06 12:32:23;;;;;;;13.20;11.90;;;;;;;;;;4993478;28;25065;-72
2023/11/06 12:35:11;;;;;;;13.27;12.00;;;;;;;;;;4982138;28;25084;-70
2023/11/06 12:37:47;;;;;;;11.60;10.48;;;;;;;;;;4989021;28;25077;-71
2023/11/06 12:40:13;;;;;;;22.00;20.20;;;;;;;;;;4996049;28;25077;-70
2023/11/06 12:42:40;;;;;;;15.95;14.75;;;;;;;;;;5006215;28;25202;-69
2023/11/06 12:45:24;;;;;;;15.82;14.32;;;;;;;;;;5009239;28;25071;-71
2023/11/06 12:47:52;;;;;;;10.65;6.70;;;;;;;;;;4995182;28;25143;-73
2023/11/06 12:50:18;;;;;;;8.60;5.78;;;;;;;;;;4995516;28;25100;-71
2023/11/06 12:52:44;;;;;;;6.13;3.97;;;;;;;;;;4983890;28;25158;-71
2023/11/06 12:55:14;;;;;;;9.07;3.55;;;;;;;;;;4985455;28;25069;-71
2023/11/06 12:57:40;;;;;;;10.90;3.85;;;;;;;;;;4985226;28;25072;-70
2023/11/06 13:00:14;;;;;;;6.00;2.33;;;;;;;;;;4988650;28;25071;-71
2023/11/06 13:02:40;;;;;;;11.32;2.92;;;;;;;;;;5010049;28;25096;-71
2023/11/06 13:05:09;;;;;;;11.45;3.08;;;;;;;;;;5015254;28;25165;-72
2023/11/06 13:07:41;;;;;;;13.98;4.47;;;;;;;;;;5022832;28;25056;-73
2023/11/06 13:10:10;;;;;;;9.93;4.22;;;;;;;;;;5011971;28;25088;-71
2023/11/06 13:12:36;;;;;;;9.65;4.43;;;;;;;;;;5024517;28;25125;-69
2023/11/06 13:15:03;;;;;;;7.85;5.13;;;;;;;;;;5016042;28;25060;-70
2023/11/06 13:17:29;;;;;;;7.55;4.65;;;;;;;;;;5022967;28;25061;-71
2023/11/06 13:19:58;;;;;;;7.63;3.97;;;;;;;;;;5009009;28;25061;-72
2023/11/06 13:22:25;;;;;;;7.50;3.97;;;;;;;;;;5012907;28;25109;-72
2023/11/06 13:24:51;;;;;;;12.70;4.53;;;;;;;;;;5019929;28;25069;-72
2023/11/06 13:27:17;;;;;;;7.43;4.10;;;;;;;;;;5018964;28;25147;-71
2023/11/06 13:29:43;;;;;;;10.48;3.38;;;;;;;;;;5008258;28;25068;-70
2023/11/06 13:32:09;;;;;;;8.50;3.20;;;;;;;;;;5011079;28;25071;-70
2023/11/06 13:34:36;;;;;;;8.10;3.10;;;;;;;;;;5010307;28;25055;-73
2023/11/06 13:37:02;;;;;;;6.15;2.63;;;;;;;;;;5005878;28;25136;-72
2023/11/06 13:39:28;;;;;;;12.43;3.47;;;;;;;;;;5007024;28;25053;-71
2023/11/06 13:41:55;;;;;;;8.48;3.10;;;;;;;;;;5018762;28;25088;-71
2023/11/06 13:44:24;;;;;;;6.68;3.13;;;;;;;;;;5008467;28;25072;-73
2023/11/06 13:46:52;;;;;;;8.07;2.97;;;;;;;;;;5014980;28;25068;-70
2023/11/06 13:49:19;;;;;;;5.80;2.90;;;;;;;;;;5006634;28;25067;-71
2023/11/06 13:51:51;;;;;;;8.10;3.00;;;;;;;;;;4999561;28;25066;-72
2023/11/06 13:54:24;;;;;;;10.80;3.20;;;;;;;;;;5002839;28;25075;-73
2023/11/06 13:56:52;;;;;;;8.50;3.15;;;;;;;;;;5004543;28;25048;-72
2023/11/06 13:59:27;;;;;;;10.85;5.05;;;;;;;;;;5008482;28;25086;-73
2023/11/06 14:01:53;;;;;;;10.68;5.50;;;;;;;;;;5006728;28;25090;-73
2023/11/06 14:04:19;;;;;;;12.10;7.85;;;;;;;;;;5013154;28;25085;-73
2023/11/06 14:06:54;;;;;;;10.10;9.07;;;;;;;;;;5011675;28;25043;-75
2023/11/06 14:09:36;;;;;;;16.50;15.45;;;;;;;;;;5016214;28;25075;-70